New Hope, Pennsylvania
Current Conditions -  °F | °C
As of 11:53 PM on Friday 19 Dec 2014 (Local Time) from KTTN Reporting Station
Overcast Overcast  
Wind Chill: 27°   Ceiling: 2700
Heat Index: 32°   Visibility: 10mi
Dew Point: 20°   Wind: 5mph
Humidity: 61%   Direction: 330°NNW
Pressure: 30.19"   Gusts: NA
Location:  40.36°N, 74.95°W
Report Text: KTTN 200453Z AUTO 33004KT 10SM OVC027 00/M07 A3019 RMK AO2 SLP219 T00001067 400441011
Loading
Personal Weather Stations






























Interactive Weather Map New forecast layout! Learn more

10-Day Weather Forecast

Advertisements
Track Severe Weather on mobile